Enter the Airport ICAO Code

Search by Airport or City

Current Weather

LELN | León Airport

León, Castile and León, Spain

Last Update 14 Minutes Ago

Sky with Few Clouds

Temperature of 05 ºC

Light to Moderate Winds from North

Temperature

05 ºC

Dew Point Temperature

03 ºC Below Zero

Relative Humidity

56.17 %

Wind Direction

North (360º, Ranging from 320º to 040º)

Wind Velocity

11 km/h (06 kt)

Gusts

None

Visibility

Greater than 10 Kilometers

Sea Level Pressure

1020 hPa (Hectopascals)

Layers of Clouds

5% to 30% of Sky Covered from 762 mts (2500 ft) Above Ground Level.

METAR LELN 090930Z 36006KT 320V040 9999 FEW025 05/M03 Q1020

Weather Forecast

LELN | León Airport

León, Castile and León, Spain

Forecast valid for the next 23 Hours

In the next hour it is expected the begining of:

Light to Moderate Winds from Variable Directions

Maximum Temperature

09 ºC in 5 Hours

Minimum Temperature

03 ºC Below Zero in 21 Hours

TAF LELN 090800Z 0909/1009 02010KT 9999 FEW030 TX09/0915Z TNM03/1007Z BECMG 0910/0911 VRB05KT